sensor_id;sensor_type;location;lat;lon;timestamp;temperature;humidity
21115;DHT22;10715;48.546;9.896;2023-07-28T00:00:21;14.40;99.90
21115;DHT22;10715;48.546;9.896;2023-07-28T00:02:47;14.30;99.90
21115;DHT22;10715;48.546;9.896;2023-07-28T00:05:13;14.20;99.90
21115;DHT22;10715;48.546;9.896;2023-07-28T00:07:38;14.20;99.90
21115;DHT22;10715;48.546;9.896;2023-07-28T00:10:04;14.10;99.90
21115;DHT22;10715;48.546;9.896;2023-07-28T00:12:30;14.00;99.90
21115;DHT22;10715;48.546;9.896;2023-07-28T00:14:56;14.00;99.90
21115;DHT22;10715;48.546;9.896;2023-07-28T00:17:22;13.90;99.90
21115;DHT22;10715;48.546;9.896;2023-07-28T00:19:47;13.90;99.90
21115;DHT22;10715;48.546;9.896;2023-07-28T00:22:13;13.90;99.90
21115;DHT22;10715;48.546;9.896;2023-07-28T00:24:39;13.90;99.90
21115;DHT22;10715;48.546;9.896;2023-07-28T00:27:05;13.90;99.90
21115;DHT22;10715;48.546;9.896;2023-07-28T00:29:30;13.90;99.90
21115;DHT22;10715;48.546;9.896;2023-07-28T00:31:56;13.80;99.90
21115;DHT22;10715;48.546;9.896;2023-07-28T00:34:22;13.80;99.90
21115;DHT22;10715;48.546;9.896;2023-07-28T00:36:47;13.70;99.90
21115;DHT22;10715;48.546;9.896;2023-07-28T00:39:13;13.70;99.90
21115;DHT22;10715;48.546;9.896;2023-07-28T00:41:39;13.60;99.90
21115;DHT22;10715;48.546;9.896;2023-07-28T00:44:04;13.60;99.90
21115;DHT22;10715;48.546;9.896;2023-07-28T00:46:30;13.60;99.90
21115;DHT22;10715;48.546;9.896;2023-07-28T00:48:56;13.60;99.90
21115;DHT22;10715;48.546;9.896;2023-07-28T00:51:22;13.60;99.90
21115;DHT22;10715;48.546;9.896;2023-07-28T00:53:48;13.50;99.90
21115;DHT22;10715;48.546;9.896;2023-07-28T00:56:14;13.50;99.90
21115;DHT22;10715;48.546;9.896;2023-07-28T00:58:40;13.50;99.90
21115;DHT22;10715;48.546;9.896;2023-07-28T01:01:06;13.40;99.90
21115;DHT22;10715;48.546;9.896;2023-07-28T01:03:32;13.30;99.90
21115;DHT22;10715;48.546;9.896;2023-07-28T01:08:34;13.30;99.90
21115;DHT22;10715;48.546;9.896;2023-07-28T01:11:01;13.20;99.90
21115;DHT22;10715;48.546;9.896;2023-07-28T01:13:27;13.10;99.90
21115;DHT22;10715;48.546;9.896;2023-07-28T01:15:54;13.10;99.90
21115;DHT22;10715;48.546;9.896;2023-07-28T01:18:20;13.00;99.90
21115;DHT22;10715;48.546;9.896;2023-07-28T01:20:46;12.90;99.90
21115;DHT22;10715;48.546;9.896;2023-07-28T01:26:09;12.80;99.90
21115;DHT22;10715;48.546;9.896;2023-07-28T01:28:35;12.70;99.90
21115;DHT22;10715;48.546;9.896;2023-07-28T01:31:03;12.70;99.90
21115;DHT22;10715;48.546;9.896;2023-07-28T01:33:29;12.70;99.90
21115;DHT22;10715;48.546;9.896;2023-07-28T01:35:54;12.60;99.90
21115;DHT22;10715;48.546;9.896;2023-07-28T01:38:21;12.60;99.90
21115;DHT22;10715;48.546;9.896;2023-07-28T01:40:46;12.60;99.90
21115;DHT22;10715;48.546;9.896;2023-07-28T01:43:12;12.60;99.90
21115;DHT22;10715;48.546;9.896;2023-07-28T01:45:38;12.60;99.90
21115;DHT22;10715;48.546;9.896;2023-07-28T01:48:04;12.60;99.90
21115;DHT22;10715;48.546;9.896;2023-07-28T01:50:30;12.50;99.90
21115;DHT22;10715;48.546;9.896;2023-07-28T01:52:56;12.50;99.90
21115;DHT22;10715;48.546;9.896;2023-07-28T01:55:22;12.40;99.90
21115;DHT22;10715;48.546;9.896;2023-07-28T01:57:55;12.40;99.90
21115;DHT22;10715;48.546;9.896;2023-07-28T02:00:21;12.40;99.90
21115;DHT22;10715;48.546;9.896;2023-07-28T02:02:48;12.40;99.90
21115;DHT22;10715;48.546;9.896;2023-07-28T02:05:14;12.40;99.90
21115;DHT22;10715;48.546;9.896;2023-07-28T02:07:40;12.40;99.90
21115;DHT22;10715;48.546;9.896;2023-07-28T02:10:06;12.30;99.90
21115;DHT22;10715;48.546;9.896;2023-07-28T02:12:32;12.30;99.90
21115;DHT22;10715;48.546;9.896;2023-07-28T02:14:57;12.30;99.90
21115;DHT22;10715;48.546;9.896;2023-07-28T02:17:23;12.20;99.90
21115;DHT22;10715;48.546;9.896;2023-07-28T02:19:49;12.20;99.90
21115;DHT22;10715;48.546;9.896;2023-07-28T02:22:14;12.20;99.90
21115;DHT22;10715;48.546;9.896;2023-07-28T02:24:40;12.20;99.90
21115;DHT22;10715;48.546;9.896;2023-07-28T02:27:06;12.20;99.90
21115;DHT22;10715;48.546;9.896;2023-07-28T02:29:32;12.10;99.90
21115;DHT22;10715;48.546;9.896;2023-07-28T02:31:57;12.10;99.90
21115;DHT22;10715;48.546;9.896;2023-07-28T02:34:23;12.10;99.90
21115;DHT22;10715;48.546;9.896;2023-07-28T02:36:49;12.00;99.90
21115;DHT22;10715;48.546;9.896;2023-07-28T02:39:15;12.00;99.90
21115;DHT22;10715;48.546;9.896;2023-07-28T02:41:41;12.00;99.90
21115;DHT22;10715;48.546;9.896;2023-07-28T02:44:07;11.90;99.90
21115;DHT22;10715;48.546;9.896;2023-07-28T02:46:33;11.90;99.90
21115;DHT22;10715;48.546;9.896;2023-07-28T02:48:58;11.80;99.90
21115;DHT22;10715;48.546;9.896;2023-07-28T02:51:24;11.80;99.90
21115;DHT22;10715;48.546;9.896;2023-07-28T02:53:50;11.80;99.90
21115;DHT22;10715;48.546;9.896;2023-07-28T02:56:15;11.80;99.90
21115;DHT22;10715;48.546;9.896;2023-07-28T02:58:41;11.80;99.90
21115;DHT22;10715;48.546;9.896;2023-07-28T03:01:07;11.80;99.90
21115;DHT22;10715;48.546;9.896;2023-07-28T03:03:32;11.80;99.90
21115;DHT22;10715;48.546;9.896;2023-07-28T03:05:58;11.80;99.90
21115;DHT22;10715;48.546;9.896;2023-07-28T03:08:24;11.70;99.90
21115;DHT22;10715;48.546;9.896;2023-07-28T03:10:49;11.70;99.90
21115;DHT22;10715;48.546;9.896;2023-07-28T03:13:15;11.70;99.90
21115;DHT22;10715;48.546;9.896;2023-07-28T03:15:41;11.70;99.90
21115;DHT22;10715;48.546;9.896;2023-07-28T03:18:06;11.60;99.90
21115;DHT22;10715;48.546;9.896;2023-07-28T03:20:32;11.60;99.90
21115;DHT22;10715;48.546;9.896;2023-07-28T03:22:58;11.60;99.90
21115;DHT22;10715;48.546;9.896;2023-07-28T03:25:23;11.60;99.90
21115;DHT22;10715;48.546;9.896;2023-07-28T03:27:49;11.60;99.90
21115;DHT22;10715;48.546;9.896;2023-07-28T03:30:15;11.60;99.90
21115;DHT22;10715;48.546;9.896;2023-07-28T03:32:40;11.50;99.90
21115;DHT22;10715;48.546;9.896;2023-07-28T03:35:07;11.50;99.90
21115;DHT22;10715;48.546;9.896;2023-07-28T03:37:33;11.50;99.90
21115;DHT22;10715;48.546;9.896;2023-07-28T03:39:59;11.50;99.90
21115;DHT22;10715;48.546;9.896;2023-07-28T03:42:25;11.50;99.90
21115;DHT22;10715;48.546;9.896;2023-07-28T03:44:52;11.50;99.90
21115;DHT22;10715;48.546;9.896;2023-07-28T03:47:18;11.50;99.90
21115;DHT22;10715;48.546;9.896;2023-07-28T03:49:44;11.50;99.90
21115;DHT22;10715;48.546;9.896;2023-07-28T03:52:10;11.50;99.90
21115;DHT22;10715;48.546;9.896;2023-07-28T03:54:35;11.50;99.90
21115;DHT22;10715;48.546;9.896;2023-07-28T03:57:01;11.50;99.90
21115;DHT22;10715;48.546;9.896;2023-07-28T03:59:27;11.50;99.90
21115;DHT22;10715;48.546;9.896;2023-07-28T04:01:52;11.50;99.90
21115;DHT22;10715;48.546;9.896;2023-07-28T04:04:18;11.50;99.90
21115;DHT22;10715;48.546;9.896;2023-07-28T04:06:46;11.50;99.90
21115;DHT22;10715;48.546;9.896;2023-07-28T04:09:13;11.50;99.90
21115;DHT22;10715;48.546;9.896;2023-07-28T04:11:40;11.40;99.90
21115;DHT22;10715;48.546;9.896;2023-07-28T04:14:09;11.40;99.90
21115;DHT22;10715;48.546;9.896;2023-07-28T04:16:34;11.40;99.90
21115;DHT22;10715;48.546;9.896;2023-07-28T04:19:00;11.40;99.90
21115;DHT22;10715;48.546;9.896;2023-07-28T04:21:26;11.40;99.90
21115;DHT22;10715;48.546;9.896;2023-07-28T04:23:52;11.40;99.90
21115;DHT22;10715;48.546;9.896;2023-07-28T04:26:18;11.40;99.90
21115;DHT22;10715;48.546;9.896;2023-07-28T04:28:44;11.40;99.90
21115;DHT22;10715;48.546;9.896;2023-07-28T04:31:10;11.40;99.90
21115;DHT22;10715;48.546;9.896;2023-07-28T04:33:36;11.40;99.90
21115;DHT22;10715;48.546;9.896;2023-07-28T04:36:05;11.40;99.90
21115;DHT22;10715;48.546;9.896;2023-07-28T04:38:30;11.50;99.90
21115;DHT22;10715;48.546;9.896;2023-07-28T04:40:56;11.50;99.90
21115;DHT22;10715;48.546;9.896;2023-07-28T04:43:22;11.50;99.90
21115;DHT22;10715;48.546;9.896;2023-07-28T04:45:48;11.50;99.90
21115;DHT22;10715;48.546;9.896;2023-07-28T04:48:13;11.50;99.90
21115;DHT22;10715;48.546;9.896;2023-07-28T04:50:39;11.60;99.90
21115;DHT22;10715;48.546;9.896;2023-07-28T04:53:05;11.60;99.90
21115;DHT22;10715;48.546;9.896;2023-07-28T04:55:30;11.60;99.90
21115;DHT22;10715;48.546;9.896;2023-07-28T04:57:56;11.60;99.90
21115;DHT22;10715;48.546;9.896;2023-07-28T05:00:22;11.60;99.90
21115;DHT22;10715;48.546;9.896;2023-07-28T05:02:49;11.70;99.90
21115;DHT22;10715;48.546;9.896;2023-07-28T05:05:15;11.70;99.90
21115;DHT22;10715;48.546;9.896;2023-07-28T05:07:41;11.70;99.90
21115;DHT22;10715;48.546;9.896;2023-07-28T05:10:07;11.80;99.90
21115;DHT22;10715;48.546;9.896;2023-07-28T05:12:33;11.80;99.90
21115;DHT22;10715;48.546;9.896;2023-07-28T05:14:59;11.80;99.90
21115;DHT22;10715;48.546;9.896;2023-07-28T05:17:25;11.90;99.90
21115;DHT22;10715;48.546;9.896;2023-07-28T05:19:51;11.90;99.90
21115;DHT22;10715;48.546;9.896;2023-07-28T05:22:17;12.00;99.90
21115;DHT22;10715;48.546;9.896;2023-07-28T05:24:43;12.10;99.90
21115;DHT22;10715;48.546;9.896;2023-07-28T05:27:12;12.10;99.90
21115;DHT22;10715;48.546;9.896;2023-07-28T05:29:38;12.20;99.90
21115;DHT22;10715;48.546;9.896;2023-07-28T05:32:04;12.30;99.90
21115;DHT22;10715;48.546;9.896;2023-07-28T05:34:30;12.30;99.90
21115;DHT22;10715;48.546;9.896;2023-07-28T05:36:55;12.40;99.90
21115;DHT22;10715;48.546;9.896;2023-07-28T05:39:21;12.50;99.90
21115;DHT22;10715;48.546;9.896;2023-07-28T05:41:47;12.50;99.90
21115;DHT22;10715;48.546;9.896;2023-07-28T05:44:13;12.60;99.90
21115;DHT22;10715;48.546;9.896;2023-07-28T05:46:39;12.60;99.90
21115;DHT22;10715;48.546;9.896;2023-07-28T05:49:05;12.70;99.90
21115;DHT22;10715;48.546;9.896;2023-07-28T05:51:30;12.80;99.90
21115;DHT22;10715;48.546;9.896;2023-07-28T05:53:56;12.80;99.90
21115;DHT22;10715;48.546;9.896;2023-07-28T05:56:22;12.90;99.90
21115;DHT22;10715;48.546;9.896;2023-07-28T05:58:48;13.00;99.90
21115;DHT22;10715;48.546;9.896;2023-07-28T06:01:14;13.00;99.90
21115;DHT22;10715;48.546;9.896;2023-07-28T06:03:40;13.10;99.90
21115;DHT22;10715;48.546;9.896;2023-07-28T06:06:06;13.20;99.90
21115;DHT22;10715;48.546;9.896;2023-07-28T06:08:32;13.20;99.90
21115;DHT22;10715;48.546;9.896;2023-07-28T06:10:58;13.20;99.90
21115;DHT22;10715;48.546;9.896;2023-07-28T06:13:24;13.30;99.90
21115;DHT22;10715;48.546;9.896;2023-07-28T06:15:49;13.30;99.90
21115;DHT22;10715;48.546;9.896;2023-07-28T06:18:15;13.40;99.90
21115;DHT22;10715;48.546;9.896;2023-07-28T06:20:45;13.40;99.90
21115;DHT22;10715;48.546;9.896;2023-07-28T06:23:11;13.50;99.90
21115;DHT22;10715;48.546;9.896;2023-07-28T06:25:36;13.50;99.90
21115;DHT22;10715;48.546;9.896;2023-07-28T06:28:08;13.60;99.90
21115;DHT22;10715;48.546;9.896;2023-07-28T06:30:33;13.60;99.90
21115;DHT22;10715;48.546;9.896;2023-07-28T06:32:59;13.70;99.90
21115;DHT22;10715;48.546;9.896;2023-07-28T06:35:25;13.80;99.90
21115;DHT22;10715;48.546;9.896;2023-07-28T06:37:50;13.80;99.90
21115;DHT22;10715;48.546;9.896;2023-07-28T06:40:16;13.90;99.90
21115;DHT22;10715;48.546;9.896;2023-07-28T06:42:42;14.00;99.90
21115;DHT22;10715;48.546;9.896;2023-07-28T06:45:07;14.00;99.90
21115;DHT22;10715;48.546;9.896;2023-07-28T06:47:33;14.00;99.90
21115;DHT22;10715;48.546;9.896;2023-07-28T06:49:59;14.10;99.90
21115;DHT22;10715;48.546;9.896;2023-07-28T06:52:25;14.20;99.90
21115;DHT22;10715;48.546;9.896;2023-07-28T06:54:51;14.20;99.90
21115;DHT22;10715;48.546;9.896;2023-07-28T06:57:16;14.30;99.90
21115;DHT22;10715;48.546;9.896;2023-07-28T06:59:42;14.30;99.90
21115;DHT22;10715;48.546;9.896;2023-07-28T07:02:08;14.40;99.90
21115;DHT22;10715;48.546;9.896;2023-07-28T07:04:34;14.40;99.90
21115;DHT22;10715;48.546;9.896;2023-07-28T07:07:00;14.50;99.90
21115;DHT22;10715;48.546;9.896;2023-07-28T07:09:26;14.50;99.90
21115;DHT22;10715;48.546;9.896;2023-07-28T07:11:51;14.60;99.90
21115;DHT22;10715;48.546;9.896;2023-07-28T07:14:17;14.70;99.90
21115;DHT22;10715;48.546;9.896;2023-07-28T07:16:43;14.70;99.90
21115;DHT22;10715;48.546;9.896;2023-07-28T07:19:09;14.80;99.90
21115;DHT22;10715;48.546;9.896;2023-07-28T07:21:35;14.90;99.90
21115;DHT22;10715;48.546;9.896;2023-07-28T07:24:02;15.00;99.90
21115;DHT22;10715;48.546;9.896;2023-07-28T07:26:27;15.10;99.90
21115;DHT22;10715;48.546;9.896;2023-07-28T07:28:53;15.20;99.90
21115;DHT22;10715;48.546;9.896;2023-07-28T07:31:19;15.30;99.90
21115;DHT22;10715;48.546;9.896;2023-07-28T07:33:45;15.30;99.90
21115;DHT22;10715;48.546;9.896;2023-07-28T07:36:15;15.40;99.90
21115;DHT22;10715;48.546;9.896;2023-07-28T07:38:41;15.50;99.90
21115;DHT22;10715;48.546;9.896;2023-07-28T07:41:08;15.60;99.90
21115;DHT22;10715;48.546;9.896;2023-07-28T07:43:34;15.70;99.90
21115;DHT22;10715;48.546;9.896;2023-07-28T07:46:00;15.70;99.90
21115;DHT22;10715;48.546;9.896;2023-07-28T07:48:25;15.80;99.90
21115;DHT22;10715;48.546;9.896;2023-07-28T07:50:51;15.90;99.90
21115;DHT22;10715;48.546;9.896;2023-07-28T07:53:17;15.90;99.90
21115;DHT22;10715;48.546;9.896;2023-07-28T07:55:43;16.00;99.90
21115;DHT22;10715;48.546;9.896;2023-07-28T07:58:09;16.10;99.90
21115;DHT22;10715;48.546;9.896;2023-07-28T08:00:37;16.20;99.90
21115;DHT22;10715;48.546;9.896;2023-07-28T08:03:03;16.30;99.90
21115;DHT22;10715;48.546;9.896;2023-07-28T08:05:30;16.40;99.90
21115;DHT22;10715;48.546;9.896;2023-07-28T08:07:56;16.50;99.90
21115;DHT22;10715;48.546;9.896;2023-07-28T08:10:22;16.60;99.90
21115;DHT22;10715;48.546;9.896;2023-07-28T08:12:48;16.70;99.90
21115;DHT22;10715;48.546;9.896;2023-07-28T08:15:14;16.80;99.90
21115;DHT22;10715;48.546;9.896;2023-07-28T08:17:39;16.90;99.90
21115;DHT22;10715;48.546;9.896;2023-07-28T08:20:08;17.00;99.90
21115;DHT22;10715;48.546;9.896;2023-07-28T08:22:34;17.10;99.90
21115;DHT22;10715;48.546;9.896;2023-07-28T08:25:00;17.20;99.90
21115;DHT22;10715;48.546;9.896;2023-07-28T08:27:26;17.40;99.90
21115;DHT22;10715;48.546;9.896;2023-07-28T08:29:52;17.50;99.90
21115;DHT22;10715;48.546;9.896;2023-07-28T08:32:17;17.50;99.90
21115;DHT22;10715;48.546;9.896;2023-07-28T08:34:43;17.60;99.90
21115;DHT22;10715;48.546;9.896;2023-07-28T08:37:09;17.70;99.90
21115;DHT22;10715;48.546;9.896;2023-07-28T08:39:34;17.80;99.90
21115;DHT22;10715;48.546;9.896;2023-07-28T08:42:01;17.80;99.90
21115;DHT22;10715;48.546;9.896;2023-07-28T08:44:31;17.90;99.90
21115;DHT22;10715;48.546;9.896;2023-07-28T08:46:58;17.90;99.90
21115;DHT22;10715;48.546;9.896;2023-07-28T08:49:24;17.90;99.90
21115;DHT22;10715;48.546;9.896;2023-07-28T08:51:50;18.00;99.90
21115;DHT22;10715;48.546;9.896;2023-07-28T08:54:16;18.00;99.90
21115;DHT22;10715;48.546;9.896;2023-07-28T08:56:45;18.00;99.90
21115;DHT22;10715;48.546;9.896;2023-07-28T08:59:11;18.00;99.90
21115;DHT22;10715;48.546;9.896;2023-07-28T09:01:40;18.00;99.90
21115;DHT22;10715;48.546;9.896;2023-07-28T09:04:10;18.10;99.90
21115;DHT22;10715;48.546;9.896;2023-07-28T09:06:36;18.10;99.90
21115;DHT22;10715;48.546;9.896;2023-07-28T09:09:02;18.10;99.90
21115;DHT22;10715;48.546;9.896;2023-07-28T09:11:32;18.10;99.90
21115;DHT22;10715;48.546;9.896;2023-07-28T09:14:00;18.20;99.90
21115;DHT22;10715;48.546;9.896;2023-07-28T09:16:26;18.40;99.90
21115;DHT22;10715;48.546;9.896;2023-07-28T09:19:08;18.50;99.90
21115;DHT22;10715;48.546;9.896;2023-07-28T09:21:34;18.60;99.90
21115;DHT22;10715;48.546;9.896;2023-07-28T09:24:00;18.80;99.90
21115;DHT22;10715;48.546;9.896;2023-07-28T09:26:44;18.90;99.90
21115;DHT22;10715;48.546;9.896;2023-07-28T09:29:20;19.00;99.90
21115;DHT22;10715;48.546;9.896;2023-07-28T09:31:47;19.10;99.90
21115;DHT22;10715;48.546;9.896;2023-07-28T09:34:24;19.10;99.90
21115;DHT22;10715;48.546;9.896;2023-07-28T09:36:50;19.20;99.90
21115;DHT22;10715;48.546;9.896;2023-07-28T09:39:15;19.20;99.90
21115;DHT22;10715;48.546;9.896;2023-07-28T09:41:45;19.20;99.90
21115;DHT22;10715;48.546;9.896;2023-07-28T09:44:11;19.30;99.90
21115;DHT22;10715;48.546;9.896;2023-07-28T09:46:51;19.40;99.90
21115;DHT22;10715;48.546;9.896;2023-07-28T09:49:41;19.50;99.90
21115;DHT22;10715;48.546;9.896;2023-07-28T09:52:09;19.60;99.90
21115;DHT22;10715;48.546;9.896;2023-07-28T09:54:43;19.60;99.90
21115;DHT22;10715;48.546;9.896;2023-07-28T09:57:13;19.80;99.90
21115;DHT22;10715;48.546;9.896;2023-07-28T09:59:41;19.90;99.90
21115;DHT22;10715;48.546;9.896;2023-07-28T10:02:07;20.00;99.90
21115;DHT22;10715;48.546;9.896;2023-07-28T10:04:33;20.00;99.90
21115;DHT22;10715;48.546;9.896;2023-07-28T10:07:00;20.00;99.90
21115;DHT22;10715;48.546;9.896;2023-07-28T10:09:28;20.10;99.90
21115;DHT22;10715;48.546;9.896;2023-07-28T10:11:56;20.10;99.90
21115;DHT22;10715;48.546;9.896;2023-07-28T10:14:35;20.10;99.90
21115;DHT22;10715;48.546;9.896;2023-07-28T10:17:04;20.20;99.90
21115;DHT22;10715;48.546;9.896;2023-07-28T10:19:35;20.30;99.90
21115;DHT22;10715;48.546;9.896;2023-07-28T10:22:09;20.30;99.90
21115;DHT22;10715;48.546;9.896;2023-07-28T10:25:00;20.40;99.90
21115;DHT22;10715;48.546;9.896;2023-07-28T10:27:37;20.40;99.90
21115;DHT22;10715;48.546;9.896;2023-07-28T10:30:09;20.40;99.90
21115;DHT22;10715;48.546;9.896;2023-07-28T10:32:41;20.50;99.90
21115;DHT22;10715;48.546;9.896;2023-07-28T10:37:44;20.70;99.90
21115;DHT22;10715;48.546;9.896;2023-07-28T10:40:34;20.70;99.90
21115;DHT22;10715;48.546;9.896;2023-07-28T10:43:01;20.70;99.90
21115;DHT22;10715;48.546;9.896;2023-07-28T10:45:30;20.70;99.90
21115;DHT22;10715;48.546;9.896;2023-07-28T10:47:57;20.70;99.90
21115;DHT22;10715;48.546;9.896;2023-07-28T10:50:30;20.70;99.90
21115;DHT22;10715;48.546;9.896;2023-07-28T10:52:56;20.70;99.90
21115;DHT22;10715;48.546;9.896;2023-07-28T10:55:24;20.70;99.90
21115;DHT22;10715;48.546;9.896;2023-07-28T10:57:51;20.70;99.90
21115;DHT22;10715;48.546;9.896;2023-07-28T11:00:18;20.70;99.90
21115;DHT22;10715;48.546;9.896;2023-07-28T11:02:45;20.70;99.90
21115;DHT22;10715;48.546;9.896;2023-07-28T11:05:18;20.70;99.90
21115;DHT22;10715;48.546;9.896;2023-07-28T11:07:44;20.70;99.90
21115;DHT22;10715;48.546;9.896;2023-07-28T11:10:11;20.70;99.90
21115;DHT22;10715;48.546;9.896;2023-07-28T11:12:44;20.70;99.90
21115;DHT22;10715;48.546;9.896;2023-07-28T11:15:11;20.70;99.90
21115;DHT22;10715;48.546;9.896;2023-07-28T11:17:39;20.80;99.90
21115;DHT22;10715;48.546;9.896;2023-07-28T11:20:21;20.80;99.90
21115;DHT22;10715;48.546;9.896;2023-07-28T11:22:59;20.90;99.90
21115;DHT22;10715;48.546;9.896;2023-07-28T11:25:26;20.90;99.90
21115;DHT22;10715;48.546;9.896;2023-07-28T11:27:52;21.00;99.90
21115;DHT22;10715;48.546;9.896;2023-07-28T11:30:19;21.10;99.90
21115;DHT22;10715;48.546;9.896;2023-07-28T11:32:46;21.20;99.90
21115;DHT22;10715;48.546;9.896;2023-07-28T11:35:14;21.20;99.90
21115;DHT22;10715;48.546;9.896;2023-07-28T11:37:41;21.30;99.90
21115;DHT22;10715;48.546;9.896;2023-07-28T11:40:08;21.30;99.90
21115;DHT22;10715;48.546;9.896;2023-07-28T11:42:45;21.30;99.90
21115;DHT22;10715;48.546;9.896;2023-07-28T11:45:13;21.40;99.90
21115;DHT22;10715;48.546;9.896;2023-07-28T11:47:39;21.50;99.90
21115;DHT22;10715;48.546;9.896;2023-07-28T11:50:05;21.50;99.90
21115;DHT22;10715;48.546;9.896;2023-07-28T11:52:35;21.60;99.90
21115;DHT22;10715;48.546;9.896;2023-07-28T11:55:04;21.70;99.90
21115;DHT22;10715;48.546;9.896;2023-07-28T11:57:30;21.70;99.90
21115;DHT22;10715;48.546;9.896;2023-07-28T11:59:57;21.80;99.90
21115;DHT22;10715;48.546;9.896;2023-07-28T12:02:27;21.90;99.90
21115;DHT22;10715;48.546;9.896;2023-07-28T12:04:54;22.00;99.90
21115;DHT22;10715;48.546;9.896;2023-07-28T12:07:28;22.00;99.90
21115;DHT22;10715;48.546;9.896;2023-07-28T12:09:55;22.10;99.90
21115;DHT22;10715;48.546;9.896;2023-07-28T12:12:26;22.10;99.90
21115;DHT22;10715;48.546;9.896;2023-07-28T12:14:55;22.20;99.90
21115;DHT22;10715;48.546;9.896;2023-07-28T12:17:22;22.20;99.90
21115;DHT22;10715;48.546;9.896;2023-07-28T12:20:05;22.20;99.90
21115;DHT22;10715;48.546;9.896;2023-07-28T12:22:41;22.20;99.90
21115;DHT22;10715;48.546;9.896;2023-07-28T12:25:08;22.20;99.90
21115;DHT22;10715;48.546;9.896;2023-07-28T12:27:34;22.20;99.90
21115;DHT22;10715;48.546;9.896;2023-07-28T12:30:00;22.20;99.90
21115;DHT22;10715;48.546;9.896;2023-07-28T12:32:27;22.20;99.90
21115;DHT22;10715;48.546;9.896;2023-07-28T12:34:53;22.10;99.90
21115;DHT22;10715;48.546;9.896;2023-07-28T12:37:19;22.00;99.90
21115;DHT22;10715;48.546;9.896;2023-07-28T12:39:45;22.00;99.90
21115;DHT22;10715;48.546;9.896;2023-07-28T12:42:11;21.80;99.90
21115;DHT22;10715;48.546;9.896;2023-07-28T12:44:38;21.70;99.90
21115;DHT22;10715;48.546;9.896;2023-07-28T12:47:04;21.60;99.90
21115;DHT22;10715;48.546;9.896;2023-07-28T12:49:31;21.50;99.90
21115;DHT22;10715;48.546;9.896;2023-07-28T12:52:00;21.40;99.90
21115;DHT22;10715;48.546;9.896;2023-07-28T12:54:26;21.30;99.90
21115;DHT22;10715;48.546;9.896;2023-07-28T12:56:56;21.30;99.90
21115;DHT22;10715;48.546;9.896;2023-07-28T12:59:21;21.20;99.90
21115;DHT22;10715;48.546;9.896;2023-07-28T13:01:47;21.20;99.90
21115;DHT22;10715;48.546;9.896;2023-07-28T13:04:13;21.10;99.90
21115;DHT22;10715;48.546;9.896;2023-07-28T13:06:39;21.00;99.90
21115;DHT22;10715;48.546;9.896;2023-07-28T13:09:07;21.00;99.90
21115;DHT22;10715;48.546;9.896;2023-07-28T13:11:34;21.00;99.90
21115;DHT22;10715;48.546;9.896;2023-07-28T13:14:00;21.00;99.90
21115;DHT22;10715;48.546;9.896;2023-07-28T13:16:25;20.90;99.90
21115;DHT22;10715;48.546;9.896;2023-07-28T13:18:52;20.90;99.90
21115;DHT22;10715;48.546;9.896;2023-07-28T13:21:18;20.90;99.90
21115;DHT22;10715;48.546;9.896;2023-07-28T13:23:44;20.90;99.90
21115;DHT22;10715;48.546;9.896;2023-07-28T13:26:10;20.90;99.90
21115;DHT22;10715;48.546;9.896;2023-07-28T13:28:35;20.80;99.90
21115;DHT22;10715;48.546;9.896;2023-07-28T13:31:02;20.80;99.90
21115;DHT22;10715;48.546;9.896;2023-07-28T13:33:28;20.70;99.90
21115;DHT22;10715;48.546;9.896;2023-07-28T13:35:54;20.70;99.90
21115;DHT22;10715;48.546;9.896;2023-07-28T13:38:20;20.70;99.90
21115;DHT22;10715;48.546;9.896;2023-07-28T13:40:45;20.70;99.90
21115;DHT22;10715;48.546;9.896;2023-07-28T13:43:11;20.70;99.90
21115;DHT22;10715;48.546;9.896;2023-07-28T13:45:37;20.70;99.90
21115;DHT22;10715;48.546;9.896;2023-07-28T13:48:03;20.70;99.90
21115;DHT22;10715;48.546;9.896;2023-07-28T13:50:28;20.70;99.90
21115;DHT22;10715;48.546;9.896;2023-07-28T13:52:54;20.70;99.90
21115;DHT22;10715;48.546;9.896;2023-07-28T13:55:20;20.70;99.90
21115;DHT22;10715;48.546;9.896;2023-07-28T13:57:46;20.70;99.90
21115;DHT22;10715;48.546;9.896;2023-07-28T14:00:12;20.60;99.90
21115;DHT22;10715;48.546;9.896;2023-07-28T14:02:38;20.60;99.90
21115;DHT22;10715;48.546;9.896;2023-07-28T14:05:05;20.60;99.90
21115;DHT22;10715;48.546;9.896;2023-07-28T14:07:31;20.60;99.90
21115;DHT22;10715;48.546;9.896;2023-07-28T14:09:57;20.50;99.90
21115;DHT22;10715;48.546;9.896;2023-07-28T14:12:23;20.50;99.90
21115;DHT22;10715;48.546;9.896;2023-07-28T14:14:49;20.50;99.90
21115;DHT22;10715;48.546;9.896;2023-07-28T14:17:17;20.40;99.90
21115;DHT22;10715;48.546;9.896;2023-07-28T14:19:43;20.40;99.90
21115;DHT22;10715;48.546;9.896;2023-07-28T14:22:09;20.40;99.90
21115;DHT22;10715;48.546;9.896;2023-07-28T14:24:34;20.30;99.90
21115;DHT22;10715;48.546;9.896;2023-07-28T14:27:00;20.30;99.90
21115;DHT22;10715;48.546;9.896;2023-07-28T14:29:26;20.30;99.90
21115;DHT22;10715;48.546;9.896;2023-07-28T14:31:52;20.30;99.90
21115;DHT22;10715;48.546;9.896;2023-07-28T14:34:18;20.30;99.90
21115;DHT22;10715;48.546;9.896;2023-07-28T14:36:43;20.30;99.90
21115;DHT22;10715;48.546;9.896;2023-07-28T14:39:09;20.20;99.90
21115;DHT22;10715;48.546;9.896;2023-07-28T14:41:35;20.20;99.90
21115;DHT22;10715;48.546;9.896;2023-07-28T14:44:01;20.20;99.90
21115;DHT22;10715;48.546;9.896;2023-07-28T14:46:27;20.20;99.90
21115;DHT22;10715;48.546;9.896;2023-07-28T14:48:53;20.20;99.90
21115;DHT22;10715;48.546;9.896;2023-07-28T14:51:19;20.20;99.90
21115;DHT22;10715;48.546;9.896;2023-07-28T14:53:46;20.20;99.90
21115;DHT22;10715;48.546;9.896;2023-07-28T14:56:13;20.20;99.90
21115;DHT22;10715;48.546;9.896;2023-07-28T14:58:39;20.20;99.90
21115;DHT22;10715;48.546;9.896;2023-07-28T15:01:10;20.20;99.90
21115;DHT22;10715;48.546;9.896;2023-07-28T15:03:36;20.10;99.90
21115;DHT22;10715;48.546;9.896;2023-07-28T15:06:02;20.10;99.90
21115;DHT22;10715;48.546;9.896;2023-07-28T15:08:29;20.10;99.90
21115;DHT22;10715;48.546;9.896;2023-07-28T15:10:58;20.00;99.90
21115;DHT22;10715;48.546;9.896;2023-07-28T15:13:24;20.00;99.90
21115;DHT22;10715;48.546;9.896;2023-07-28T15:15:50;20.00;99.90
21115;DHT22;10715;48.546;9.896;2023-07-28T15:18:16;19.90;99.90
21115;DHT22;10715;48.546;9.896;2023-07-28T15:20:42;19.90;99.90
21115;DHT22;10715;48.546;9.896;2023-07-28T15:23:09;19.90;99.90
21115;DHT22;10715;48.546;9.896;2023-07-28T15:25:35;19.80;99.90
21115;DHT22;10715;48.546;9.896;2023-07-28T15:28:01;19.80;99.90
21115;DHT22;10715;48.546;9.896;2023-07-28T15:30:26;19.80;99.90
21115;DHT22;10715;48.546;9.896;2023-07-28T15:32:52;19.80;99.90
21115;DHT22;10715;48.546;9.896;2023-07-28T15:35:18;19.70;99.90